Time;durP1;ratioP1;P1;durP2;ratioP2;P2;SDS_P1;SDS_P2;PMS_P1;PMS_P2;Temp;Humidity;BMP_temperature;BMP_pressure;BME280_temperature;BME280_humidity;BME280_pressure;Samples;Min_cycle;Max_cycle;Signal;HPM_P1;HPM_P2
2023/07/27 00:00:38;;;;;;;2.15;2.05;;;;;;;;;;5060597;28;20239;-57
2023/07/27 00:03:05;;;;;;;3.65;2.10;;;;;;;;;;5059553;28;20214;-57
2023/07/27 00:05:32;;;;;;;2.08;1.83;;;;;;;;;;5063257;28;20211;-58
2023/07/27 00:07:59;;;;;;;2.47;2.33;;;;;;;;;;5067659;28;20817;-57
2023/07/27 00:10:28;;;;;;;3.72;2.35;;;;;;;;;;5064423;28;20199;-59
2023/07/27 00:12:55;;;;;;;3.35;2.15;;;;;;;;;;5064958;28;20207;-60
2023/07/27 00:15:22;;;;;;;2.47;2.25;;;;;;;;;;5056678;28;20211;-60
2023/07/27 00:17:49;;;;;;;2.90;2.17;;;;;;;;;;5049203;28;20243;-58
2023/07/27 00:20:16;;;;;;;1.95;1.95;;;;;;;;;;5058285;28;20230;-59
2023/07/27 00:22:43;;;;;;;2.22;2.03;;;;;;;;;;5058265;28;20207;-59
2023/07/27 00:25:10;;;;;;;2.50;2.38;;;;;;;;;;5049552;28;20204;-59
2023/07/27 00:27:38;;;;;;;2.30;2.20;;;;;;;;;;5047658;28;20685;-59
2023/07/27 00:30:06;;;;;;;1.80;1.80;;;;;;;;;;5049537;28;20553;-59
2023/07/27 00:32:33;;;;;;;2.17;2.05;;;;;;;;;;5049164;28;20203;-60
2023/07/27 00:35:00;;;;;;;2.30;2.08;;;;;;;;;;5068031;28;20211;-59
2023/07/27 00:37:27;;;;;;;2.22;2.13;;;;;;;;;;5068155;28;20226;-59
2023/07/27 00:39:54;;;;;;;2.50;2.40;;;;;;;;;;5067379;28;20250;-60
2023/07/27 00:42:21;;;;;;;2.53;2.40;;;;;;;;;;5066985;28;20203;-60
2023/07/27 00:44:49;;;;;;;2.28;2.17;;;;;;;;;;5067758;28;20627;-60
2023/07/27 00:47:17;;;;;;;1.83;1.73;;;;;;;;;;5062942;28;20206;-59
2023/07/27 00:49:44;;;;;;;2.17;2.08;;;;;;;;;;5065776;28;20199;-59
2023/07/27 00:52:11;;;;;;;2.30;2.20;;;;;;;;;;5050049;28;20277;-60
2023/07/27 00:54:38;;;;;;;2.08;1.98;;;;;;;;;;5064083;28;20627;-59
2023/07/27 00:57:06;;;;;;;2.33;2.22;;;;;;;;;;5068755;28;20656;-59
2023/07/27 00:59:34;;;;;;;2.58;2.00;;;;;;;;;;5051799;28;20238;-59
2023/07/27 01:02:02;;;;;;;4.30;2.47;;;;;;;;;;5049885;28;20207;-59
2023/07/27 01:04:29;;;;;;;5.05;2.38;;;;;;;;;;5049650;28;20211;-59
2023/07/27 01:06:56;;;;;;;2.55;2.35;;;;;;;;;;5047995;28;20214;-60
2023/07/27 01:09:23;;;;;;;3.55;2.08;;;;;;;;;;5064871;28;20214;-59
2023/07/27 01:11:51;;;;;;;2.30;2.20;;;;;;;;;;5062759;28;20207;-59
2023/07/27 01:14:23;;;;;;;2.78;2.60;;;;;;;;;;5048356;28;20207;-56
2023/07/27 01:16:53;;;;;;;3.20;2.25;;;;;;;;;;5056922;28;20214;-57
2023/07/27 01:19:32;;;;;;;2.60;1.98;;;;;;;;;;5062799;28;20207;-57
2023/07/27 01:22:07;;;;;;;4.47;2.92;;;;;;;;;;5063116;28;20227;-56
2023/07/27 01:24:44;;;;;;;4.60;2.20;;;;;;;;;;5048652;28;20203;-57
2023/07/27 01:27:19;;;;;;;4.10;2.00;;;;;;;;;;5063558;28;20682;-57
2023/07/27 01:29:53;;;;;;;2.50;2.30;;;;;;;;;;5063025;28;20309;-60
2023/07/27 01:32:22;;;;;;;2.55;2.42;;;;;;;;;;5064832;28;20708;-60
2023/07/27 01:34:51;;;;;;;2.58;2.40;;;;;;;;;;5066506;28;20211;-60
2023/07/27 01:37:19;;;;;;;4.35;2.70;;;;;;;;;;5061344;28;20203;-59
2023/07/27 01:39:48;;;;;;;4.35;2.85;;;;;;;;;;5066328;28;20250;-59
2023/07/27 01:42:26;;;;;;;2.35;2.17;;;;;;;;;;5054445;28;20698;-59
2023/07/27 01:44:53;;;;;;;2.35;2.08;;;;;;;;;;5044758;28;20216;-60
2023/07/27 01:47:23;;;;;;;2.40;2.30;;;;;;;;;;5051021;28;20670;-59
2023/07/27 01:49:51;;;;;;;2.08;2.05;;;;;;;;;;5053385;28;20207;-59
2023/07/27 01:52:19;;;;;;;6.47;2.70;;;;;;;;;;5057777;28;20210;-59
2023/07/27 01:54:47;;;;;;;2.35;2.25;;;;;;;;;;5050539;28;20211;-59
2023/07/27 01:57:14;;;;;;;2.95;2.40;;;;;;;;;;5062574;28;20203;-59
2023/07/27 01:59:42;;;;;;;3.88;2.80;;;;;;;;;;5067682;28;20203;-59
2023/07/27 02:02:09;;;;;;;4.88;3.13;;;;;;;;;;5064500;28;20211;-59
2023/07/27 02:04:38;;;;;;;3.20;2.92;;;;;;;;;;5061315;28;20231;-59
2023/07/27 02:07:05;;;;;;;2.85;2.65;;;;;;;;;;5067022;28;20211;-60
2023/07/27 02:09:32;;;;;;;2.90;2.70;;;;;;;;;;5058094;28;20234;-60
2023/07/27 02:12:03;;;;;;;2.90;2.70;;;;;;;;;;5069825;28;20688;-60
2023/07/27 02:14:36;;;;;;;2.63;2.47;;;;;;;;;;5064799;28;20199;-60
2023/07/27 02:17:08;;;;;;;3.00;2.80;;;;;;;;;;5051563;28;20231;-59
2023/07/27 02:19:37;;;;;;;3.33;3.00;;;;;;;;;;5063254;28;20206;-57
2023/07/27 02:22:06;;;;;;;3.10;2.90;;;;;;;;;;5068818;28;20214;-57
2023/07/27 02:24:33;;;;;;;4.22;2.60;;;;;;;;;;5052694;28;20204;-58
2023/07/27 02:27:00;;;;;;;2.90;2.70;;;;;;;;;;5051097;28;20199;-57
2023/07/27 02:29:27;;;;;;;3.60;2.90;;;;;;;;;;5051483;28;20455;-57
2023/07/27 02:31:54;;;;;;;3.95;2.85;;;;;;;;;;5051270;28;20200;-57
2023/07/27 02:34:21;;;;;;;5.28;2.75;;;;;;;;;;5056405;28;20295;-57
2023/07/27 02:36:48;;;;;;;3.30;2.63;;;;;;;;;;5052270;28;20210;-57
2023/07/27 02:39:16;;;;;;;4.57;2.42;;;;;;;;;;5052574;28;20218;-58
2023/07/27 02:41:49;;;;;;;5.28;2.70;;;;;;;;;;5060871;28;20591;-58
2023/07/27 02:44:16;;;;;;;3.38;2.95;;;;;;;;;;5051102;28;20232;-58
2023/07/27 02:46:43;;;;;;;2.70;2.50;;;;;;;;;;5050231;28;20293;-57
2023/07/27 02:49:10;;;;;;;2.72;2.60;;;;;;;;;;5050096;28;20212;-57
2023/07/27 02:51:37;;;;;;;3.20;2.50;;;;;;;;;;5050655;28;20204;-57
2023/07/27 02:54:04;;;;;;;2.67;2.50;;;;;;;;;;5050850;28;20208;-57
2023/07/27 02:56:32;;;;;;;2.42;2.22;;;;;;;;;;5054703;28;20214;-57
2023/07/27 02:58:59;;;;;;;2.33;2.22;;;;;;;;;;5050780;28;20207;-57
2023/07/27 03:01:27;;;;;;;3.15;2.85;;;;;;;;;;5051824;28;20231;-57
2023/07/27 03:03:54;;;;;;;3.17;2.88;;;;;;;;;;5053824;28;20662;-57
2023/07/27 03:06:21;;;;;;;3.35;3.05;;;;;;;;;;5050664;28;20203;-57
2023/07/27 03:08:48;;;;;;;3.17;2.90;;;;;;;;;;5066137;28;20214;-58
2023/07/27 03:11:15;;;;;;;2.65;2.45;;;;;;;;;;5055630;28;20466;-59
2023/07/27 03:13:43;;;;;;;5.40;2.50;;;;;;;;;;5069315;28;20260;-59
2023/07/27 03:16:10;;;;;;;2.33;2.22;;;;;;;;;;5066246;28;20207;-58
2023/07/27 03:18:37;;;;;;;3.25;2.47;;;;;;;;;;5068057;28;20231;-58
2023/07/27 03:21:04;;;;;;;4.55;2.58;;;;;;;;;;5063177;28;20220;-58
2023/07/27 03:23:33;;;;;;;2.50;2.30;;;;;;;;;;5050339;28;20203;-58
2023/07/27 03:26:11;;;;;;;4.57;2.78;;;;;;;;;;5065944;28;20203;-58
2023/07/27 03:28:38;;;;;;;2.85;2.65;;;;;;;;;;5064026;28;20272;-58
2023/07/27 03:31:15;;;;;;;2.40;2.30;;;;;;;;;;5049985;28;20195;-58
2023/07/27 03:33:42;;;;;;;2.50;2.40;;;;;;;;;;5051341;28;20215;-58
2023/07/27 03:36:09;;;;;;;2.63;2.42;;;;;;;;;;5060714;28;20208;-57
2023/07/27 03:38:36;;;;;;;2.63;2.53;;;;;;;;;;5057300;28;20956;-57
2023/07/27 03:41:03;;;;;;;2.65;2.45;;;;;;;;;;5053212;28;20310;-57
2023/07/27 03:43:30;;;;;;;2.50;2.40;;;;;;;;;;5061167;28;20231;-57
2023/07/27 03:45:57;;;;;;;2.58;2.47;;;;;;;;;;5050880;28;20204;-57
2023/07/27 03:48:25;;;;;;;2.72;2.53;;;;;;;;;;5063074;28;20199;-57
2023/07/27 03:50:53;;;;;;;3.30;2.55;;;;;;;;;;5068937;28;20226;-57
2023/07/27 03:53:20;;;;;;;4.35;2.22;;;;;;;;;;5069390;28;20207;-57
2023/07/27 03:55:47;;;;;;;2.30;2.20;;;;;;;;;;5056848;28;20210;-57
2023/07/27 03:58:14;;;;;;;4.20;2.63;;;;;;;;;;5063565;28;20215;-58
2023/07/27 04:00:41;;;;;;;2.38;2.20;;;;;;;;;;5055264;28;20219;-58
2023/07/27 04:03:08;;;;;;;5.05;2.20;;;;;;;;;;5056106;28;20685;-57
2023/07/27 04:05:36;;;;;;;2.83;2.42;;;;;;;;;;5067660;28;20207;-58
2023/07/27 04:08:04;;;;;;;2.22;2.20;;;;;;;;;;5056983;28;20250;-58
2023/07/27 04:10:31;;;;;;;2.65;2.17;;;;;;;;;;5069091;28;20207;-58
2023/07/27 04:13:04;;;;;;;2.58;2.47;;;;;;;;;;5069775;28;20218;-57
2023/07/27 04:15:32;;;;;;;2.60;2.50;;;;;;;;;;5066890;28;20284;-58
2023/07/27 04:17:59;;;;;;;2.38;2.28;;;;;;;;;;5049486;28;20258;-59
2023/07/27 04:20:26;;;;;;;2.70;2.60;;;;;;;;;;5049111;28;20219;-59
2023/07/27 04:22:54;;;;;;;2.50;2.40;;;;;;;;;;5049418;28;20428;-59
2023/07/27 04:25:21;;;;;;;2.78;2.58;;;;;;;;;;5049419;28;20304;-59
2023/07/27 04:27:48;;;;;;;2.72;2.60;;;;;;;;;;5049412;28;20234;-58
2023/07/27 04:30:15;;;;;;;2.90;2.58;;;;;;;;;;5051810;28;20569;-58
2023/07/27 04:32:42;;;;;;;2.05;2.03;;;;;;;;;;5068960;28;20214;-59
2023/07/27 04:35:09;;;;;;;2.70;2.50;;;;;;;;;;5068998;28;20210;-59
2023/07/27 04:37:36;;;;;;;2.95;2.75;;;;;;;;;;5068555;28;20214;-59
2023/07/27 04:40:05;;;;;;;3.58;2.42;;;;;;;;;;5068734;28;20210;-59
2023/07/27 04:42:32;;;;;;;2.58;2.47;;;;;;;;;;5066246;28;20231;-59
2023/07/27 04:44:59;;;;;;;2.40;2.30;;;;;;;;;;5069065;28;20207;-59
2023/07/27 04:47:26;;;;;;;3.28;2.47;;;;;;;;;;5057742;28;20207;-59
2023/07/27 04:49:53;;;;;;;4.20;2.30;;;;;;;;;;5053407;28;20203;-58
2023/07/27 04:52:20;;;;;;;2.33;2.15;;;;;;;;;;5068000;28;20211;-59
2023/07/27 04:54:47;;;;;;;2.50;2.15;;;;;;;;;;5067039;28;20203;-59
2023/07/27 04:57:16;;;;;;;2.88;2.40;;;;;;;;;;5067528;28;20657;-58
2023/07/27 04:59:43;;;;;;;3.00;2.80;;;;;;;;;;5058013;28;20208;-58
2023/07/27 05:02:10;;;;;;;2.65;2.50;;;;;;;;;;5048901;28;21137;-58
2023/07/27 05:04:37;;;;;;;2.50;2.30;;;;;;;;;;5048841;28;20208;-58
2023/07/27 05:07:04;;;;;;;2.60;2.40;;;;;;;;;;5048157;28;20295;-58
2023/07/27 05:09:31;;;;;;;3.22;2.50;;;;;;;;;;5065763;28;20208;-58
2023/07/27 05:11:58;;;;;;;2.63;2.42;;;;;;;;;;5049596;28;20219;-58
2023/07/27 05:14:27;;;;;;;2.65;2.50;;;;;;;;;;5056071;28;20755;-58
2023/07/27 05:16:54;;;;;;;2.40;2.30;;;;;;;;;;5068369;28;20207;-59
2023/07/27 05:19:21;;;;;;;2.85;2.65;;;;;;;;;;5053784;28;20661;-59
2023/07/27 05:21:48;;;;;;;2.63;2.53;;;;;;;;;;5051006;28;20714;-59
2023/07/27 05:24:15;;;;;;;4.75;2.65;;;;;;;;;;5048568;28;20210;-59
2023/07/27 05:26:42;;;;;;;2.13;2.03;;;;;;;;;;5067551;28;20222;-60
2023/07/27 05:29:09;;;;;;;2.42;2.33;;;;;;;;;;5068290;28;20211;-59
2023/07/27 05:31:37;;;;;;;3.65;2.40;;;;;;;;;;5067725;28;20206;-59
2023/07/27 05:34:04;;;;;;;3.35;2.78;;;;;;;;;;5051287;28;20315;-59
2023/07/27 05:36:31;;;;;;;2.67;2.53;;;;;;;;;;5055131;28;20211;-59
2023/07/27 05:38:58;;;;;;;2.85;2.65;;;;;;;;;;5067768;28;20209;-59
2023/07/27 05:41:25;;;;;;;3.72;2.95;;;;;;;;;;5054813;28;20276;-59
2023/07/27 05:43:52;;;;;;;2.67;2.47;;;;;;;;;;5048288;28;20223;-58
2023/07/27 05:46:19;;;;;;;3.70;2.42;;;;;;;;;;5049402;28;22395;-59
2023/07/27 05:48:48;;;;;;;2.88;2.65;;;;;;;;;;5049280;28;20670;-59
2023/07/27 05:51:15;;;;;;;2.55;2.13;;;;;;;;;;5054248;28;20206;-59
2023/07/27 05:53:44;;;;;;;2.75;2.50;;;;;;;;;;5068052;28;20211;-59
2023/07/27 05:56:11;;;;;;;2.65;2.50;;;;;;;;;;5059779;28;20239;-59
2023/07/27 05:58:38;;;;;;;4.72;2.75;;;;;;;;;;5068181;28;20249;-59
2023/07/27 06:01:05;;;;;;;3.03;2.80;;;;;;;;;;5055438;28;20280;-59
2023/07/27 06:03:33;;;;;;;2.67;2.40;;;;;;;;;;5049722;28;20203;-59
2023/07/27 06:06:01;;;;;;;2.97;2.78;;;;;;;;;;5048191;28;20220;-59
2023/07/27 06:08:29;;;;;;;2.55;2.45;;;;;;;;;;5066778;28;20612;-58
2023/07/27 06:11:04;;;;;;;2.80;2.60;;;;;;;;;;5062807;28;20608;-59
2023/07/27 06:13:31;;;;;;;2.30;2.20;;;;;;;;;;5063433;28;20268;-59
2023/07/27 06:15:58;;;;;;;2.67;2.30;;;;;;;;;;5054158;28;20204;-58
2023/07/27 06:18:25;;;;;;;2.75;2.65;;;;;;;;;;5059351;28;20322;-59
2023/07/27 06:20:52;;;;;;;2.83;2.63;;;;;;;;;;5067639;28;20792;-58
2023/07/27 06:23:21;;;;;;;7.43;2.75;;;;;;;;;;5067314;28;20207;-59
2023/07/27 06:25:49;;;;;;;3.85;2.53;;;;;;;;;;5067392;28;20703;-59
2023/07/27 06:28:16;;;;;;;4.15;2.63;;;;;;;;;;5065590;28;20215;-59
2023/07/27 06:30:45;;;;;;;3.17;2.97;;;;;;;;;;5063746;28;20206;-58
2023/07/27 06:33:12;;;;;;;2.78;2.58;;;;;;;;;;5058432;28;20796;-58
2023/07/27 06:35:39;;;;;;;5.97;2.40;;;;;;;;;;5060955;28;20774;-57
2023/07/27 06:38:07;;;;;;;2.95;2.78;;;;;;;;;;5047108;28;20211;-58
2023/07/27 06:40:35;;;;;;;3.70;2.88;;;;;;;;;;5056528;28;20646;-58
2023/07/27 06:43:02;;;;;;;2.58;2.35;;;;;;;;;;5066853;28;20238;-60
2023/07/27 06:45:29;;;;;;;3.78;2.97;;;;;;;;;;5067545;28;20218;-59
2023/07/27 06:47:56;;;;;;;2.58;2.47;;;;;;;;;;5060976;28;20215;-58
2023/07/27 06:50:23;;;;;;;3.00;2.90;;;;;;;;;;5067324;28;20218;-58
2023/07/27 06:52:50;;;;;;;5.32;2.80;;;;;;;;;;5067747;28;20524;-58
2023/07/27 06:55:18;;;;;;;4.28;2.65;;;;;;;;;;5066814;28;20226;-59
2023/07/27 06:57:47;;;;;;;3.00;2.80;;;;;;;;;;5069435;28;20241;-59
2023/07/27 07:00:14;;;;;;;4.30;2.70;;;;;;;;;;5053724;28;20613;-58
2023/07/27 07:02:41;;;;;;;4.78;2.38;;;;;;;;;;5051360;28;20591;-58
2023/07/27 07:05:08;;;;;;;5.18;2.80;;;;;;;;;;5050461;28;20207;-59
2023/07/27 07:07:36;;;;;;;4.20;2.83;;;;;;;;;;5050794;28;20215;-59
2023/07/27 07:10:03;;;;;;;5.07;2.67;;;;;;;;;;5050081;28;20216;-59
2023/07/27 07:12:30;;;;;;;4.30;2.60;;;;;;;;;;5051038;28;20208;-59
2023/07/27 07:14:58;;;;;;;3.83;3.03;;;;;;;;;;5050043;28;20235;-58
2023/07/27 07:17:25;;;;;;;2.80;2.60;;;;;;;;;;5050305;28;20266;-59
2023/07/27 07:19:53;;;;;;;8.15;3.08;;;;;;;;;;5050075;28;20212;-59
2023/07/27 07:22:20;;;;;;;2.58;2.47;;;;;;;;;;5050250;28;20231;-59
2023/07/27 07:24:47;;;;;;;3.00;2.80;;;;;;;;;;5050243;28;20207;-58
2023/07/27 07:27:14;;;;;;;8.52;3.97;;;;;;;;;;5055551;28;20316;-59
2023/07/27 07:29:41;;;;;;;5.13;2.75;;;;;;;;;;5069988;28;20223;-59
2023/07/27 07:32:10;;;;;;;3.30;3.10;;;;;;;;;;5070322;28;20526;-59
2023/07/27 07:34:37;;;;;;;4.53;2.65;;;;;;;;;;5069861;28;20553;-58
2023/07/27 07:37:04;;;;;;;2.88;2.40;;;;;;;;;;5070209;28;20302;-58
2023/07/27 07:39:31;;;;;;;4.03;2.92;;;;;;;;;;5069672;28;20207;-59
2023/07/27 07:41:59;;;;;;;6.18;2.75;;;;;;;;;;5069722;28;20285;-59
2023/07/27 07:44:26;;;;;;;4.18;2.95;;;;;;;;;;5068551;28;20250;-58
2023/07/27 07:46:53;;;;;;;4.78;2.97;;;;;;;;;;5066072;28;20207;-58
2023/07/27 07:49:21;;;;;;;5.20;2.90;;;;;;;;;;5059462;28;20203;-58
2023/07/27 07:51:48;;;;;;;3.92;2.78;;;;;;;;;;5069840;28;20264;-57
2023/07/27 07:54:15;;;;;;;3.67;3.35;;;;;;;;;;5068423;28;20211;-57
2023/07/27 07:56:42;;;;;;;3.40;3.17;;;;;;;;;;5069371;28;20260;-57
2023/07/27 07:59:09;;;;;;;6.88;3.17;;;;;;;;;;5054360;28;20234;-58
2023/07/27 08:01:36;;;;;;;3.55;3.15;;;;;;;;;;5049222;28;20226;-59
2023/07/27 08:04:04;;;;;;;3.42;3.20;;;;;;;;;;5061240;28;20583;-58
2023/07/27 08:06:33;;;;;;;3.28;3.08;;;;;;;;;;5051590;28;20285;-58
2023/07/27 08:09:00;;;;;;;4.10;3.22;;;;;;;;;;5057537;28;20211;-58
2023/07/27 08:11:27;;;;;;;4.63;3.50;;;;;;;;;;5066487;28;20206;-58
2023/07/27 08:13:55;;;;;;;2.92;2.83;;;;;;;;;;5069370;28;20199;-59
2023/07/27 08:16:22;;;;;;;3.17;3.08;;;;;;;;;;5062864;28;20211;-59
2023/07/27 08:18:49;;;;;;;3.60;3.28;;;;;;;;;;5067290;28;20724;-58
2023/07/27 08:21:16;;;;;;;2.90;2.80;;;;;;;;;;5061131;28;20259;-59
2023/07/27 08:23:44;;;;;;;3.67;3.38;;;;;;;;;;5051235;28;20270;-59
2023/07/27 08:26:12;;;;;;;3.70;3.40;;;;;;;;;;5060916;28;20215;-58
2023/07/27 08:28:40;;;;;;;3.22;2.90;;;;;;;;;;5058435;28;20206;-59
2023/07/27 08:31:07;;;;;;;3.60;3.35;;;;;;;;;;5066915;28;20210;-59
2023/07/27 08:33:35;;;;;;;3.42;3.10;;;;;;;;;;5048813;28;20662;-60
2023/07/27 08:36:02;;;;;;;3.45;3.25;;;;;;;;;;5050070;28;20215;-61
2023/07/27 08:38:29;;;;;;;3.58;3.38;;;;;;;;;;5049793;28;20211;-62
2023/07/27 08:40:58;;;;;;;3.45;3.25;;;;;;;;;;5048753;28;20578;-60
2023/07/27 08:43:25;;;;;;;5.28;3.88;;;;;;;;;;5052181;28;20246;-60
2023/07/27 08:45:53;;;;;;;3.50;3.22;;;;;;;;;;5058450;28;20850;-59
2023/07/27 08:48:20;;;;;;;3.58;3.35;;;;;;;;;;5056694;28;20661;-60
2023/07/27 08:50:48;;;;;;;3.08;2.80;;;;;;;;;;5067180;28;20211;-60
2023/07/27 08:53:16;;;;;;;3.97;3.35;;;;;;;;;;5068306;28;20799;-60
2023/07/27 08:55:43;;;;;;;3.55;3.28;;;;;;;;;;5054469;28;20239;-60
2023/07/27 08:58:12;;;;;;;3.53;3.22;;;;;;;;;;5067405;28;20207;-60
2023/07/27 09:00:39;;;;;;;4.22;3.35;;;;;;;;;;5061866;28;20210;-60
2023/07/27 09:03:07;;;;;;;4.35;2.75;;;;;;;;;;5064856;28;20238;-60
2023/07/27 09:05:38;;;;;;;3.28;3.05;;;;;;;;;;5064248;28;20211;-61
2023/07/27 09:08:07;;;;;;;3.30;3.10;;;;;;;;;;5051127;28;20208;-60
2023/07/27 09:10:34;;;;;;;3.25;3.05;;;;;;;;;;5047797;28;20200;-62
2023/07/27 09:13:01;;;;;;;3.00;2.80;;;;;;;;;;5047685;28;20207;-59
2023/07/27 09:15:42;;;;;;;3.38;3.08;;;;;;;;;;5046324;28;20207;-60
2023/07/27 09:18:10;;;;;;;2.83;2.63;;;;;;;;;;5053264;28;20230;-60
2023/07/27 09:20:37;;;;;;;3.03;2.63;;;;;;;;;;5047533;28;20214;-59
2023/07/27 09:23:04;;;;;;;3.17;2.97;;;;;;;;;;5052400;28;20599;-59
2023/07/27 09:25:31;;;;;;;3.17;2.97;;;;;;;;;;5055042;28;20215;-59
2023/07/27 09:27:58;;;;;;;4.75;3.03;;;;;;;;;;5064187;28;20207;-60
2023/07/27 09:30:26;;;;;;;2.97;2.78;;;;;;;;;;5058441;28;20206;-60
2023/07/27 09:32:55;;;;;;;3.00;2.83;;;;;;;;;;5051131;28;20516;-60
2023/07/27 09:35:22;;;;;;;3.17;2.88;;;;;;;;;;5060752;28;20319;-60
2023/07/27 09:37:51;;;;;;;6.50;2.70;;;;;;;;;;5062870;28;20207;-60
2023/07/27 09:40:19;;;;;;;2.97;2.72;;;;;;;;;;5062394;28;20216;-60
2023/07/27 09:42:46;;;;;;;2.95;2.75;;;;;;;;;;5064991;28;20242;-60
2023/07/27 09:45:14;;;;;;;2.95;2.80;;;;;;;;;;5059503;28;20657;-61
2023/07/27 09:47:41;;;;;;;2.72;2.40;;;;;;;;;;5054810;28;20736;-64
2023/07/27 09:50:10;;;;;;;2.53;2.42;;;;;;;;;;5059822;28;20207;-64
2023/07/27 09:52:39;;;;;;;2.60;2.30;;;;;;;;;;5066805;28;20276;-61
2023/07/27 09:55:06;;;;;;;2.35;2.15;;;;;;;;;;5051334;28;20217;-60
2023/07/27 09:57:35;;;;;;;3.15;2.50;;;;;;;;;;5055567;28;20211;-60
2023/07/27 10:00:06;;;;;;;2.72;2.13;;;;;;;;;;5059184;28;20269;-60
2023/07/27 10:02:35;;;;;;;2.33;2.22;;;;;;;;;;5061347;28;20284;-60
2023/07/27 10:05:03;;;;;;;2.35;2.25;;;;;;;;;;5066879;28;20290;-60
2023/07/27 10:07:32;;;;;;;2.60;2.50;;;;;;;;;;5049968;28;20298;-60
2023/07/27 10:10:17;;;;;;;5.93;1.90;;;;;;;;;;5056386;28;20208;-60
2023/07/27 10:12:44;;;;;;;2.65;2.08;;;;;;;;;;5056678;28;20599;-60
2023/07/27 10:15:21;;;;;;;1.90;1.80;;;;;;;;;;5066608;28;20567;-60
2023/07/27 10:17:50;;;;;;;4.07;2.30;;;;;;;;;;5066077;28;20235;-60
2023/07/27 10:20:25;;;;;;;2.20;2.15;;;;;;;;;;5064411;28;20318;-60
2023/07/27 10:22:54;;;;;;;2.30;2.20;;;;;;;;;;5066226;28;20317;-60
2023/07/27 10:25:21;;;;;;;2.20;2.00;;;;;;;;;;5061641;28;20218;-60
2023/07/27 10:27:55;;;;;;;2.22;2.13;;;;;;;;;;5061275;28;20251;-60
2023/07/27 10:30:22;;;;;;;2.25;2.15;;;;;;;;;;5064581;28;20288;-60
2023/07/27 10:33:04;;;;;;;2.45;2.28;;;;;;;;;;5070699;28;20207;-60
2023/07/27 10:35:32;;;;;;;3.08;2.30;;;;;;;;;;5063857;28;20463;-60
2023/07/27 10:38:02;;;;;;;3.53;2.10;;;;;;;;;;5061359;28;20210;-60
2023/07/27 10:40:31;;;;;;;2.20;2.10;;;;;;;;;;5069729;28;20211;-59
2023/07/27 10:42:58;;;;;;;2.35;2.25;;;;;;;;;;5070425;28;20601;-60
2023/07/27 10:45:26;;;;;;;2.90;2.67;;;;;;;;;;5067908;28;20279;-59
2023/07/27 10:47:56;;;;;;;2.60;2.47;;;;;;;;;;5065141;28;20593;-58
2023/07/27 10:50:24;;;;;;;2.55;2.45;;;;;;;;;;5067639;28;20802;-62
2023/07/27 10:52:52;;;;;;;3.20;2.83;;;;;;;;;;5068194;28;20199;-60
2023/07/27 10:55:21;;;;;;;3.17;2.60;;;;;;;;;;5058545;28;20200;-59
2023/07/27 10:57:48;;;;;;;2.20;2.10;;;;;;;;;;5056784;28;20298;-59
2023/07/27 11:00:16;;;;;;;2.72;2.58;;;;;;;;;;5063034;28;20708;-58
2023/07/27 11:02:44;;;;;;;2.78;2.58;;;;;;;;;;5067720;28;20607;-63
2023/07/27 11:05:13;;;;;;;2.35;2.35;;;;;;;;;;5066881;28;20236;-64
2023/07/27 11:07:42;;;;;;;3.13;2.78;;;;;;;;;;5054030;28;20207;-65
2023/07/27 11:10:10;;;;;;;2.30;2.20;;;;;;;;;;5051530;28;20289;-61
2023/07/27 11:12:47;;;;;;;3.15;2.95;;;;;;;;;;5064849;28;20838;-66
2023/07/27 11:15:17;;;;;;;2.60;2.08;;;;;;;;;;5069951;28;20671;-63
2023/07/27 11:17:44;;;;;;;2.55;2.35;;;;;;;;;;5058341;28;20849;-60
2023/07/27 11:20:12;;;;;;;2.67;2.53;;;;;;;;;;5061104;28;20208;-60
2023/07/27 11:22:39;;;;;;;2.92;2.72;;;;;;;;;;5049906;28;20216;-60
2023/07/27 11:25:09;;;;;;;2.70;2.60;;;;;;;;;;5065277;28;20210;-60
2023/07/27 11:27:38;;;;;;;2.58;2.40;;;;;;;;;;5061798;28;20208;-60
2023/07/27 11:30:09;;;;;;;2.70;2.50;;;;;;;;;;5055179;28;20661;-60
2023/07/27 11:32:36;;;;;;;2.65;2.45;;;;;;;;;;5059944;28;20211;-60
2023/07/27 11:35:03;;;;;;;2.50;2.40;;;;;;;;;;5053940;28;20302;-60
2023/07/27 11:37:31;;;;;;;3.72;2.95;;;;;;;;;;5063715;28;20657;-60
2023/07/27 11:39:59;;;;;;;2.95;2.85;;;;;;;;;;5069066;28;20204;-60
2023/07/27 11:42:27;;;;;;;3.22;2.67;;;;;;;;;;5068701;28;20663;-60
2023/07/27 11:44:54;;;;;;;4.32;2.78;;;;;;;;;;5065821;28;20233;-59
2023/07/27 11:47:23;;;;;;;2.97;2.88;;;;;;;;;;5060928;28;20223;-60
2023/07/27 11:49:50;;;;;;;2.40;2.20;;;;;;;;;;5056339;28;20669;-60
2023/07/27 11:52:18;;;;;;;2.83;2.67;;;;;;;;;;5062566;28;20204;-59
2023/07/27 11:54:46;;;;;;;2.97;2.78;;;;;;;;;;5052417;28;20210;-60
2023/07/27 11:57:16;;;;;;;3.03;2.88;;;;;;;;;;5050889;28;20253;-59
2023/07/27 11:59:43;;;;;;;3.17;2.90;;;;;;;;;;5049590;28;20299;-59
2023/07/27 12:02:11;;;;;;;3.45;3.22;;;;;;;;;;5054317;28;20230;-59
2023/07/27 12:04:40;;;;;;;3.92;3.13;;;;;;;;;;5069172;28;20325;-59
2023/07/27 12:07:07;;;;;;;4.35;3.83;;;;;;;;;;5062608;28;20280;-59
2023/07/27 12:09:37;;;;;;;3.97;3.70;;;;;;;;;;5067533;28;20207;-59
2023/07/27 12:12:04;;;;;;;3.83;3.53;;;;;;;;;;5068102;28;20207;-59
2023/07/27 12:14:34;;;;;;;5.45;4.38;;;;;;;;;;5055564;28;20199;-60
2023/07/27 12:17:01;;;;;;;3.70;3.40;;;;;;;;;;5056917;28;20709;-59
2023/07/27 12:19:28;;;;;;;4.15;3.85;;;;;;;;;;5050117;28;20200;-59
2023/07/27 12:21:56;;;;;;;2.80;2.70;;;;;;;;;;5064310;28;20203;-60
2023/07/27 12:24:23;;;;;;;3.75;3.45;;;;;;;;;;5051704;28;20246;-62
2023/07/27 12:26:50;;;;;;;4.68;4.28;;;;;;;;;;5064405;28;20211;-60
2023/07/27 12:29:17;;;;;;;30.38;6.18;;;;;;;;;;5066114;28;20924;-57
2023/07/27 12:31:44;;;;;;;137.30;16.90;;;;;;;;;;5057817;28;20456;-61
2023/07/27 12:34:11;;;;;;;6.03;4.30;;;;;;;;;;5057335;28;20211;-57
2023/07/27 12:36:38;;;;;;;4.05;2.72;;;;;;;;;;5062910;28;20195;-60
2023/07/27 12:39:07;;;;;;;7.38;2.92;;;;;;;;;;5064023;28;20195;-59
2023/07/27 12:41:34;;;;;;;8.77;3.45;;;;;;;;;;5060247;28;20218;-58
2023/07/27 12:44:02;;;;;;;3.90;3.60;;;;;;;;;;5053208;28;20235;-60
2023/07/27 12:46:29;;;;;;;4.40;3.40;;;;;;;;;;5060405;28;20325;-59
2023/07/27 12:48:56;;;;;;;4.10;3.78;;;;;;;;;;5058676;28;20203;-59
2023/07/27 12:51:23;;;;;;;3.78;3.47;;;;;;;;;;5060900;28;20310;-59
2023/07/27 12:53:50;;;;;;;3.97;3.67;;;;;;;;;;5063005;28;20207;-58
2023/07/27 12:56:19;;;;;;;3.47;3.17;;;;;;;;;;5067973;28;20549;-59
2023/07/27 12:58:46;;;;;;;5.47;3.38;;;;;;;;;;5061072;28;20269;-59
2023/07/27 13:01:13;;;;;;;4.38;3.50;;;;;;;;;;5057523;28;20230;-59
2023/07/27 13:03:40;;;;;;;5.30;3.65;;;;;;;;;;5053530;28;20697;-59
2023/07/27 13:06:07;;;;;;;4.05;3.85;;;;;;;;;;5068140;28;20214;-59
2023/07/27 13:08:34;;;;;;;3.97;3.78;;;;;;;;;;5055015;28;20219;-59
2023/07/27 13:11:01;;;;;;;6.78;3.78;;;;;;;;;;5063096;28;20210;-60
2023/07/27 13:13:29;;;;;;;4.10;3.78;;;;;;;;;;5062501;28;20299;-58
2023/07/27 13:15:57;;;;;;;4.82;4.00;;;;;;;;;;5054766;28;20226;-59
2023/07/27 13:18:24;;;;;;;4.85;3.42;;;;;;;;;;5058712;28;20284;-58
2023/07/27 13:20:51;;;;;;;4.45;3.92;;;;;;;;;;5062723;28;20214;-59
2023/07/27 13:23:18;;;;;;;5.70;4.25;;;;;;;;;;5067564;28;20260;-58
2023/07/27 13:25:45;;;;;;;6.10;4.20;;;;;;;;;;5067545;28;20205;-59
2023/07/27 13:28:12;;;;;;;5.07;4.05;;;;;;;;;;5064804;28;20475;-59
2023/07/27 13:30:40;;;;;;;4.05;3.80;;;;;;;;;;5053889;28;20219;-59
2023/07/27 13:33:08;;;;;;;6.80;4.15;;;;;;;;;;5055997;28;20212;-59
2023/07/27 13:35:35;;;;;;;5.53;4.65;;;;;;;;;;5065664;28;20207;-58
2023/07/27 13:38:02;;;;;;;4.10;3.88;;;;;;;;;;5063973;28;20682;-59
2023/07/27 13:40:29;;;;;;;5.00;4.53;;;;;;;;;;5059572;28;20243;-60
2023/07/27 13:42:56;;;;;;;4.90;4.32;;;;;;;;;;5062562;28;20571;-59
2023/07/27 13:45:23;;;;;;;6.93;4.63;;;;;;;;;;5058962;28;20226;-59
2023/07/27 13:47:52;;;;;;;5.60;4.35;;;;;;;;;;5051247;28;20263;-59
2023/07/27 13:50:19;;;;;;;6.72;4.65;;;;;;;;;;5054145;28;20199;-59
2023/07/27 13:52:46;;;;;;;7.32;4.55;;;;;;;;;;5050326;28;20576;-59
2023/07/27 13:55:13;;;;;;;6.28;4.15;;;;;;;;;;5046707;28;20712;-59
2023/07/27 13:57:40;;;;;;;4.70;4.40;;;;;;;;;;5064177;28;20226;-59
2023/07/27 14:00:08;;;;;;;4.55;4.20;;;;;;;;;;5060583;28;20588;-59
2023/07/27 14:02:35;;;;;;;4.95;4.47;;;;;;;;;;5062606;28;20284;-59
2023/07/27 14:05:04;;;;;;;6.43;4.50;;;;;;;;;;5057639;28;20231;-59
2023/07/27 14:07:31;;;;;;;4.53;4.22;;;;;;;;;;5069096;28;20502;-59
2023/07/27 14:09:58;;;;;;;5.47;4.68;;;;;;;;;;5052547;28;20320;-59
2023/07/27 14:12:25;;;;;;;5.93;4.32;;;;;;;;;;5063483;28;20203;-59
2023/07/27 14:14:52;;;;;;;6.18;4.20;;;;;;;;;;5052416;28;20203;-59
2023/07/27 14:17:19;;;;;;;5.80;4.43;;;;;;;;;;5068376;28;20245;-58
2023/07/27 14:19:46;;;;;;;4.15;3.75;;;;;;;;;;5067817;28;20226;-58
2023/07/27 14:22:15;;;;;;;4.53;4.10;;;;;;;;;;5061180;28;20717;-59
2023/07/27 14:24:42;;;;;;;6.00;3.60;;;;;;;;;;5055858;28;20219;-58
2023/07/27 14:27:09;;;;;;;3.65;3.35;;;;;;;;;;5068870;28;20214;-58
2023/07/27 14:29:36;;;;;;;3.45;3.25;;;;;;;;;;5067099;28;20560;-58
2023/07/27 14:32:03;;;;;;;4.80;3.67;;;;;;;;;;5067931;28;20298;-58
2023/07/27 14:34:30;;;;;;;4.07;3.50;;;;;;;;;;5051833;28;20218;-59
2023/07/27 14:36:57;;;;;;;3.53;3.22;;;;;;;;;;5062378;28;20720;-62
2023/07/27 14:39:26;;;;;;;3.38;3.10;;;;;;;;;;5068360;28;21445;-58
2023/07/27 14:41:53;;;;;;;3.17;2.95;;;;;;;;;;5069012;28;20202;-59
2023/07/27 14:44:20;;;;;;;2.85;2.63;;;;;;;;;;5067676;28;20330;-58
2023/07/27 14:46:47;;;;;;;2.83;2.58;;;;;;;;;;5062074;28;20211;-59